Time;durP1;ratioP1;P1;durP2;ratioP2;P2;SDS_P1;SDS_P2;PMS_P1;PMS_P2;Temp;Humidity;BMP_temperature;BMP_pressure;BME280_temperature;BME280_humidity;BME280_pressure;Samples;Min_cycle;Max_cycle;Signal;HPM_P1;HPM_P2
2022/08/05 00:00:55;;;;;;;2.83;1.55;;;25.50;91.30;;;;;;5013237;28;20033;-80
2022/08/05 00:03:21;;;;;;;3.20;1.67;;;25.50;91.40;;;;;;5009287;28;20040;-80
2022/08/05 00:05:46;;;;;;;2.30;1.48;;;25.50;91.40;;;;;;5019748;28;20028;-80
2022/08/05 00:08:12;;;;;;;2.60;1.65;;;25.50;91.40;;;;;;5017864;28;20306;-80
2022/08/05 00:10:38;;;;;;;2.97;1.30;;;25.50;91.20;;;;;;5021447;28;20077;-80
2022/08/05 00:13:04;;;;;;;1.63;1.27;;;25.50;91.20;;;;;;5017939;28;20539;-80
2022/08/05 00:15:30;;;;;;;1.30;1.10;;;25.50;91.20;;;;;;5010134;28;20026;-80
2022/08/05 00:17:55;;;;;;;1.75;1.65;;;25.50;91.00;;;;;;4999874;28;20066;-79
2022/08/05 00:20:21;;;;;;;2.35;1.20;;;25.50;91.10;;;;;;5012654;28;20092;-79
2022/08/05 00:22:47;;;;;;;2.53;1.15;;;25.40;91.00;;;;;;5007068;28;20092;-80
2022/08/05 00:25:13;;;;;;;1.95;1.30;;;25.50;90.90;;;;;;5014835;28;20030;-79
2022/08/05 00:27:39;;;;;;;2.10;1.50;;;25.50;90.90;;;;;;5022694;28;20030;-79
2022/08/05 00:30:05;;;;;;;1.88;1.25;;;25.40;90.90;;;;;;5013349;28;20021;-80
2022/08/05 00:32:31;;;;;;;1.52;1.27;;;25.40;90.90;;;;;;5015823;28;20108;-80
2022/08/05 00:34:57;;;;;;;1.85;1.42;;;25.40;90.80;;;;;;5014675;28;20113;-79
2022/08/05 00:37:23;;;;;;;1.85;1.40;;;25.40;90.90;;;;;;5007103;28;20022;-80
2022/08/05 00:39:49;;;;;;;1.67;1.20;;;25.40;90.60;;;;;;5023682;28;20022;-80
2022/08/05 00:42:15;;;;;;;2.17;1.50;;;25.40;90.60;;;;;;5012216;28;20026;-80
2022/08/05 00:44:42;;;;;;;2.33;1.70;;;25.40;90.60;;;;;;5025139;28;20037;-79
2022/08/05 00:47:08;;;;;;;2.92;1.50;;;25.40;90.60;;;;;;5016511;28;20025;-80
2022/08/05 00:49:33;;;;;;;3.17;1.35;;;25.40;90.70;;;;;;5009271;28;20040;-80
2022/08/05 00:51:59;;;;;;;2.83;1.20;;;25.40;90.50;;;;;;5013696;28;20388;-79
2022/08/05 00:54:25;;;;;;;2.42;1.77;;;25.40;90.40;;;;;;5017163;28;20036;-80
2022/08/05 00:56:51;;;;;;;3.33;1.55;;;25.30;90.20;;;;;;5013636;28;20566;-80
2022/08/05 00:59:17;;;;;;;1.40;1.30;;;25.30;90.30;;;;;;5012881;28;20038;-80
2022/08/05 01:01:42;;;;;;;1.83;1.25;;;25.40;90.20;;;;;;5015416;28;20433;-80
2022/08/05 01:04:08;;;;;;;1.90;1.38;;;25.40;90.20;;;;;;5013056;28;20164;-80
2022/08/05 01:06:34;;;;;;;1.15;0.98;;;25.30;90.20;;;;;;5013707;28;20033;-80
2022/08/05 01:09:00;;;;;;;1.48;1.10;;;25.30;90.10;;;;;;5018083;28;20033;-79
2022/08/05 01:11:34;;;;;;;2.15;1.33;;;25.30;90.10;;;;;;5015978;28;20109;-80
2022/08/05 01:14:25;;;;;;;1.65;1.25;;;25.30;90.10;;;;;;5011379;28;20030;-79
2022/08/05 01:17:01;;;;;;;4.32;1.30;;;25.30;90.00;;;;;;5008430;28;20118;-79
2022/08/05 01:19:39;;;;;;;3.63;1.38;;;25.30;89.90;;;;;;5012031;28;20471;-79
2022/08/05 01:22:11;;;;;;;1.42;1.10;;;25.30;89.80;;;;;;5011528;28;20088;-80
2022/08/05 01:24:49;;;;;;;1.98;1.20;;;25.30;90.00;;;;;;5013389;28;20045;-80
2022/08/05 01:27:18;;;;;;;0.80;0.80;;;25.30;89.70;;;;;;5013497;28;20339;-80
2022/08/05 01:29:51;;;;;;;1.25;0.98;;;25.30;89.80;;;;;;5019423;28;20425;-80
2022/08/05 01:32:21;;;;;;;1.45;1.23;;;25.30;89.40;;;;;;5019580;28;20032;-80
2022/08/05 01:35:09;;;;;;;1.60;1.02;;;25.30;89.30;;;;;;5015037;28;20061;-80
2022/08/05 01:37:43;;;;;;;1.75;1.20;;;25.30;89.60;;;;;;5015393;28;20441;-80
2022/08/05 01:40:11;;;;;;;1.67;1.25;;;25.20;89.20;;;;;;5008086;28;20022;-79
2022/08/05 01:42:39;;;;;;;1.33;1.10;;;25.20;89.60;;;;;;5011890;28;20038;-79
2022/08/05 01:45:07;;;;;;;1.52;1.13;;;25.20;89.10;;;;;;5011445;28;20029;-79
2022/08/05 01:47:35;;;;;;;1.35;1.10;;;25.20;88.90;;;;;;5008002;28;20040;-80
2022/08/05 01:50:07;;;;;;;1.58;1.20;;;25.20;88.80;;;;;;5012066;28;20029;-79
2022/08/05 01:52:37;;;;;;;1.60;1.20;;;25.20;88.70;;;;;;5017622;28;20117;-79
2022/08/05 01:55:07;;;;;;;1.33;1.15;;;25.20;88.90;;;;;;5010839;28;20030;-79
2022/08/05 01:57:38;;;;;;;0.82;0.80;;;25.20;88.70;;;;;;5014510;28;20029;-80
2022/08/05 02:00:05;;;;;;;1.70;1.05;;;25.20;88.80;;;;;;5008075;28;20029;-80
2022/08/05 02:02:34;;;;;;;2.05;1.65;;;25.20;88.40;;;;;;5014956;28;20099;-79
2022/08/05 02:05:05;;;;;;;0.90;0.80;;;25.20;88.60;;;;;;5016645;28;20025;-79
2022/08/05 02:07:32;;;;;;;1.45;1.20;;;25.20;88.60;;;;;;5017412;28;20454;-80
2022/08/05 02:09:58;;;;;;;1.48;1.10;;;25.20;88.80;;;;;;5000798;28;20062;-79
2022/08/05 02:12:42;;;;;;;1.20;0.98;;;25.20;88.40;;;;;;5003428;28;20104;-79
2022/08/05 02:15:14;;;;;;;1.15;0.98;;;25.20;88.40;;;;;;5009326;28;20166;-79
2022/08/05 02:18:02;;;;;;;0.98;0.90;;;25.10;88.50;;;;;;5010072;28;20042;-79
2022/08/05 02:20:34;;;;;;;1.40;1.27;;;25.20;88.50;;;;;;5004370;28;20560;-80
2022/08/05 02:23:04;;;;;;;1.20;1.10;;;25.10;88.30;;;;;;5005835;28;20052;-79
2022/08/05 02:25:33;;;;;;;1.38;1.20;;;25.20;88.30;;;;;;5005941;28;20046;-79
2022/08/05 02:28:02;;;;;;;1.27;1.17;;;25.10;88.20;;;;;;5012096;28;20081;-79
2022/08/05 02:30:38;;;;;;;1.58;1.20;;;25.10;88.10;;;;;;5013146;28;20026;-79
2022/08/05 02:33:06;;;;;;;3.80;1.70;;;25.10;88.10;;;;;;5012392;28;20064;-80
2022/08/05 02:35:33;;;;;;;1.40;1.20;;;25.10;88.30;;;;;;5008713;28;20057;-80
2022/08/05 02:38:00;;;;;;;1.40;1.30;;;25.10;88.10;;;;;;5011831;28;20030;-80
2022/08/05 02:40:27;;;;;;;1.13;1.00;;;25.10;88.10;;;;;;5008973;28;20030;-79
2022/08/05 02:42:54;;;;;;;2.20;1.02;;;25.10;87.70;;;;;;5004534;28;20097;-79
2022/08/05 02:45:22;;;;;;;1.70;1.60;;;25.10;87.90;;;;;;5014403;28;20018;-80
2022/08/05 02:47:50;;;;;;;1.17;0.93;;;25.10;88.00;;;;;;5017706;28;20060;-80
2022/08/05 02:50:16;;;;;;;2.88;1.30;;;25.10;88.00;;;;;;5006452;28;20032;-80
2022/08/05 02:52:45;;;;;;;1.98;1.20;;;25.00;87.50;;;;;;5006748;28;20067;-79
2022/08/05 02:55:14;;;;;;;2.22;1.50;;;25.00;87.80;;;;;;5013950;28;20022;-80
2022/08/05 02:57:41;;;;;;;1.85;1.40;;;25.00;87.30;;;;;;5014772;28;20490;-80
2022/08/05 03:00:08;;;;;;;1.80;1.33;;;25.00;87.70;;;;;;5010646;28;20045;-79
2022/08/05 03:02:39;;;;;;;1.40;1.10;;;25.00;87.80;;;;;;5014250;28;20029;-79
2022/08/05 03:05:08;;;;;;;1.77;1.45;;;25.00;87.70;;;;;;5001390;28;20210;-79
2022/08/05 03:07:34;;;;;;;1.85;0.90;;;25.00;87.60;;;;;;5008892;28;20502;-80
2022/08/05 03:10:01;;;;;;;1.10;1.00;;;25.00;87.90;;;;;;5010615;28;20030;-79
2022/08/05 03:12:31;;;;;;;1.58;1.27;;;25.00;87.40;;;;;;4992538;28;20046;-80
2022/08/05 03:14:57;;;;;;;1.48;1.20;;;25.00;87.80;;;;;;5019791;28;20029;-80
2022/08/05 03:17:23;;;;;;;1.25;1.08;;;25.00;87.80;;;;;;5001657;28;20026;-80
2022/08/05 03:19:49;;;;;;;1.63;1.20;;;25.00;87.80;;;;;;5015690;28;20052;-80
2022/08/05 03:22:14;;;;;;;1.63;1.30;;;24.90;87.70;;;;;;5012349;28;20052;-80
2022/08/05 03:24:44;;;;;;;2.58;1.50;;;25.00;87.70;;;;;;5009867;28;20083;-79
2022/08/05 03:27:11;;;;;;;1.63;1.38;;;24.90;87.70;;;;;;5016922;28;20033;-80
2022/08/05 03:29:37;;;;;;;1.40;0.88;;;24.90;87.40;;;;;;5017840;28;20121;-80
2022/08/05 03:32:04;;;;;;;2.28;1.20;;;24.90;87.50;;;;;;5012665;28;20065;-79
2022/08/05 03:34:31;;;;;;;1.48;1.10;;;24.90;87.40;;;;;;5020896;28;20025;-80
2022/08/05 03:36:57;;;;;;;2.17;1.13;;;24.90;87.20;;;;;;5018332;28;20457;-80
2022/08/05 03:39:23;;;;;;;1.77;1.13;;;24.90;87.20;;;;;;5019393;28;20038;-79
2022/08/05 03:41:49;;;;;;;1.23;1.13;;;24.90;87.40;;;;;;5020510;28;20022;-80
2022/08/05 03:44:14;;;;;;;1.02;0.93;;;24.90;87.30;;;;;;5018200;28;20077;-80
2022/08/05 03:46:40;;;;;;;1.90;1.30;;;24.90;87.10;;;;;;5017293;28;20113;-79
2022/08/05 03:49:06;;;;;;;1.70;1.08;;;24.90;87.30;;;;;;5020851;28;20049;-80
2022/08/05 03:51:37;;;;;;;1.52;0.98;;;24.90;87.00;;;;;;5020910;28;20037;-80
2022/08/05 03:54:08;;;;;;;1.50;1.30;;;24.90;87.00;;;;;;5015065;28;20213;-80
2022/08/05 03:56:40;;;;;;;2.20;1.13;;;24.90;87.10;;;;;;5021512;28;20033;-79
2022/08/05 03:59:16;;;;;;;1.38;1.13;;;24.80;87.00;;;;;;5010551;28;20037;-80
2022/08/05 04:01:46;;;;;;;2.47;1.30;;;24.90;86.50;;;;;;5014176;28;20108;-80
2022/08/05 04:04:14;;;;;;;1.60;0.93;;;24.80;86.80;;;;;;5015426;28;20022;-80
2022/08/05 04:06:41;;;;;;;1.27;0.88;;;24.80;86.80;;;;;;5014899;28;20037;-80
2022/08/05 04:09:07;;;;;;;1.40;1.08;;;24.80;86.50;;;;;;5019446;28;20498;-80
2022/08/05 04:11:35;;;;;;;2.45;1.42;;;24.80;88.60;;;;;;5004051;28;20054;-80
2022/08/05 04:14:01;;;;;;;1.45;1.30;;;24.80;90.20;;;;;;5014633;28;20036;-80
2022/08/05 04:16:27;;;;;;;1.67;1.10;;;24.80;90.40;;;;;;5022302;28;20034;-81
2022/08/05 04:18:53;;;;;;;1.90;1.10;;;24.70;90.30;;;;;;5016607;28;20057;-81
2022/08/05 04:21:19;;;;;;;1.65;1.15;;;24.60;90.20;;;;;;5011619;28;20034;-80
2022/08/05 04:23:45;;;;;;;2.50;1.27;;;24.60;90.30;;;;;;5011355;28;20038;-81
2022/08/05 04:26:13;;;;;;;1.70;1.30;;;24.60;90.30;;;;;;5013427;28;20034;-81
2022/08/05 04:28:39;;;;;;;1.77;0.90;;;24.50;90.30;;;;;;5017147;28;20033;-80
2022/08/05 04:31:05;;;;;;;1.20;1.00;;;24.50;90.40;;;;;;5020795;28;20030;-80
2022/08/05 04:33:30;;;;;;;1.77;1.20;;;24.50;90.50;;;;;;5013622;28;20030;-80
2022/08/05 04:35:56;;;;;;;1.77;1.40;;;24.50;90.60;;;;;;5015193;28;20566;-80
2022/08/05 04:38:22;;;;;;;1.30;1.10;;;24.40;90.70;;;;;;5016354;28;20037;-80
2022/08/05 04:40:48;;;;;;;1.30;1.20;;;24.40;90.80;;;;;;5023524;28;20037;-80
2022/08/05 04:43:13;;;;;;;1.42;1.08;;;24.40;90.80;;;;;;5018796;28;20033;-80
2022/08/05 04:45:39;;;;;;;2.22;1.38;;;24.40;90.90;;;;;;5022443;28;20754;-81
2022/08/05 04:48:10;;;;;;;1.48;1.10;;;24.40;91.00;;;;;;5030119;28;20022;-81
2022/08/05 04:50:39;;;;;;;1.33;1.02;;;24.30;91.00;;;;;;5012295;28;20022;-80
2022/08/05 04:53:06;;;;;;;3.03;1.63;;;24.30;91.10;;;;;;5017951;28;20533;-81
2022/08/05 04:55:32;;;;;;;1.13;1.00;;;24.30;91.20;;;;;;5019376;28;20391;-81
2022/08/05 04:57:58;;;;;;;1.17;0.93;;;24.30;91.20;;;;;;5020358;28;20083;-80
2022/08/05 05:00:24;;;;;;;1.52;1.10;;;24.30;91.20;;;;;;5019558;28;20040;-80
2022/08/05 05:02:50;;;;;;;1.65;1.30;;;24.30;91.30;;;;;;5018710;28;20057;-81
2022/08/05 05:05:16;;;;;;;1.70;1.33;;;24.20;91.30;;;;;;5019109;28;20018;-80
2022/08/05 05:07:42;;;;;;;1.13;1.02;;;24.20;91.30;;;;;;5021321;28;20032;-80
2022/08/05 05:10:08;;;;;;;1.30;1.20;;;24.20;91.40;;;;;;5019784;28;20025;-80
2022/08/05 05:12:33;;;;;;;1.92;1.23;;;24.20;91.40;;;;;;4985028;28;20157;-80
2022/08/05 05:14:59;;;;;;;1.35;1.05;;;24.20;91.50;;;;;;5025938;28;20127;-80
2022/08/05 05:17:25;;;;;;;2.80;1.58;;;24.20;91.50;;;;;;5019626;28;20034;-80
2022/08/05 05:19:54;;;;;;;2.63;1.30;;;24.20;91.50;;;;;;5023122;28;20026;-80
2022/08/05 05:22:20;;;;;;;1.85;1.50;;;24.20;91.60;;;;;;5012840;28;20026;-80
2022/08/05 05:24:46;;;;;;;2.08;1.55;;;24.10;91.70;;;;;;5008886;28;20062;-80
2022/08/05 05:27:12;;;;;;;3.03;1.88;;;24.10;91.80;;;;;;5005638;28;20096;-80
2022/08/05 05:29:38;;;;;;;2.95;2.28;;;24.10;91.80;;;;;;5017134;28;20076;-80
2022/08/05 05:32:04;;;;;;;2.03;1.70;;;24.10;91.90;;;;;;5020984;28;20038;-80
2022/08/05 05:34:30;;;;;;;2.78;2.17;;;24.10;92.00;;;;;;5020108;28;20044;-80
2022/08/05 05:36:56;;;;;;;2.55;1.75;;;24.10;92.20;;;;;;5013479;28;20076;-80
2022/08/05 05:39:21;;;;;;;2.25;1.73;;;24.10;92.20;;;;;;5020829;28;20021;-80
2022/08/05 05:41:47;;;;;;;2.75;1.80;;;24.10;92.20;;;;;;5009079;28;20465;-79
2022/08/05 05:44:13;;;;;;;2.42;1.52;;;24.00;92.20;;;;;;5011749;28;20034;-79
2022/08/05 05:46:39;;;;;;;2.28;1.83;;;24.10;92.20;;;;;;5015611;28;20026;-80
2022/08/05 05:49:04;;;;;;;2.10;1.63;;;24.10;92.30;;;;;;5011584;28;20393;-79
2022/08/05 05:51:30;;;;;;;2.88;1.55;;;24.00;92.30;;;;;;5014772;28;20026;-80
2022/08/05 05:53:56;;;;;;;1.98;1.50;;;24.00;92.30;;;;;;5019622;28;20030;-79
2022/08/05 05:56:22;;;;;;;2.80;1.65;;;24.00;92.20;;;;;;5011911;28;20025;-80
2022/08/05 05:58:48;;;;;;;1.92;1.70;;;24.00;92.20;;;;;;5009390;28;20403;-79
2022/08/05 06:01:14;;;;;;;1.98;1.75;;;24.00;92.20;;;;;;5009315;28;20112;-80
2022/08/05 06:03:40;;;;;;;3.90;2.47;;;24.00;92.30;;;;;;5001296;28;20034;-80
2022/08/05 06:06:06;;;;;;;1.85;1.40;;;24.00;92.30;;;;;;5015802;28;20534;-80
2022/08/05 06:08:32;;;;;;;3.47;2.67;;;24.00;92.30;;;;;;5018720;28;20096;-78
2022/08/05 06:10:59;;;;;;;2.60;2.30;;;24.00;92.40;;;;;;5013662;28;20026;-79
2022/08/05 06:13:24;;;;;;;4.07;2.85;;;24.00;92.40;;;;;;5013061;28;20068;-80
2022/08/05 06:15:50;;;;;;;2.45;2.10;;;24.00;92.40;;;;;;5009008;28;20061;-80
2022/08/05 06:18:16;;;;;;;1.90;1.70;;;24.00;92.50;;;;;;5009622;28;20030;-80
2022/08/05 06:20:42;;;;;;;4.03;2.80;;;24.00;92.50;;;;;;5011007;28;20056;-80
2022/08/05 06:23:08;;;;;;;3.50;2.58;;;24.00;92.50;;;;;;5013934;28;20053;-79
2022/08/05 06:25:33;;;;;;;2.90;2.20;;;23.90;92.50;;;;;;5013175;28;20091;-80
2022/08/05 06:27:59;;;;;;;4.90;2.25;;;23.90;92.50;;;;;;5013237;28;20037;-80
2022/08/05 06:30:26;;;;;;;3.53;2.83;;;23.90;92.50;;;;;;5027108;28;20021;-80
2022/08/05 06:32:52;;;;;;;3.17;2.50;;;23.90;92.60;;;;;;5010195;28;20030;-80
2022/08/05 06:35:18;;;;;;;2.92;2.40;;;23.90;92.60;;;;;;5004715;28;20038;-79
2022/08/05 06:37:44;;;;;;;5.80;3.55;;;23.90;92.60;;;;;;5014567;28;20129;-80
2022/08/05 06:40:11;;;;;;;3.20;2.30;;;23.90;92.60;;;;;;5006100;28;20126;-80
2022/08/05 06:42:37;;;;;;;3.03;2.50;;;23.90;92.70;;;;;;5009221;28;20038;-79
2022/08/05 06:45:04;;;;;;;3.30;2.58;;;23.90;92.70;;;;;;5011757;28;20045;-79
2022/08/05 06:47:30;;;;;;;3.72;2.85;;;23.90;92.70;;;;;;5009486;28;20030;-79
2022/08/05 06:49:55;;;;;;;4.07;3.25;;;23.90;92.70;;;;;;5011833;28;20028;-80
2022/08/05 06:52:21;;;;;;;3.47;3.17;;;23.90;92.80;;;;;;5011921;28;20022;-79
2022/08/05 06:54:47;;;;;;;7.40;3.65;;;23.80;92.80;;;;;;5020395;28;20422;-79
2022/08/05 06:57:14;;;;;;;4.47;3.35;;;23.90;92.90;;;;;;5008746;28;20030;-79
2022/08/05 06:59:40;;;;;;;4.00;2.92;;;23.80;92.90;;;;;;5012973;28;20025;-79
2022/08/05 07:02:08;;;;;;;5.68;5.07;;;23.80;92.80;;;;;;5010858;28;20125;-79
2022/08/05 07:04:33;;;;;;;6.35;5.55;;;23.80;92.90;;;;;;5005442;28;20034;-79
2022/08/05 07:06:59;;;;;;;6.20;5.60;;;23.80;93.00;;;;;;5019522;28;20031;-79
2022/08/05 07:09:25;;;;;;;5.88;5.13;;;23.80;93.30;;;;;;5014824;28;20054;-80
2022/08/05 07:11:51;;;;;;;7.03;6.15;;;23.80;93.00;;;;;;5013077;28;20026;-79
2022/08/05 07:17:01;;;;;;;7.13;6.20;;;23.80;93.10;;;;;;5020781;28;20056;-80
2022/08/05 07:19:27;;;;;;;6.88;4.70;;;23.80;93.10;;;;;;5016640;28;20430;-80
2022/08/05 07:21:54;;;;;;;4.82;4.32;;;23.80;93.20;;;;;;5012312;28;20486;-79
2022/08/05 07:24:20;;;;;;;5.85;5.10;;;23.80;93.10;;;;;;5013879;28;20042;-80
2022/08/05 07:26:47;;;;;;;6.57;5.30;;;23.70;93.10;;;;;;5011938;28;20026;-80
2022/08/05 07:29:13;;;;;;;7.22;4.93;;;23.70;93.10;;;;;;5016293;28;20024;-79
2022/08/05 07:31:40;;;;;;;9.93;6.28;;;23.70;93.20;;;;;;5013311;28;20025;-80
2022/08/05 07:34:06;;;;;;;5.18;4.55;;;23.70;93.20;;;;;;5013471;28;20564;-79
2022/08/05 07:36:32;;;;;;;4.88;4.38;;;23.70;93.20;;;;;;5011414;28;20030;-79
2022/08/05 07:39:00;;;;;;;8.13;7.30;;;23.70;93.20;;;;;;5011348;28;20087;-79
2022/08/05 07:41:26;;;;;;;8.43;6.35;;;23.70;93.20;;;;;;5016966;28;20036;-79
2022/08/05 07:43:52;;;;;;;7.25;6.55;;;23.60;93.30;;;;;;5012628;28;20120;-80
2022/08/05 07:46:18;;;;;;;6.43;5.68;;;23.70;93.30;;;;;;5014747;28;20034;-80
2022/08/05 07:48:44;;;;;;;7.45;6.47;;;23.70;93.30;;;;;;5014360;28;20030;-79
2022/08/05 07:51:10;;;;;;;7.25;6.53;;;23.70;93.30;;;;;;5015045;28;20025;-80
2022/08/05 07:53:36;;;;;;;9.07;7.50;;;23.70;93.30;;;;;;5012798;28;20045;-79
2022/08/05 07:56:03;;;;;;;7.28;6.57;;;23.70;93.30;;;;;;5014176;28;20030;-79
2022/08/05 07:58:29;;;;;;;8.90;8.00;;;23.60;93.30;;;;;;5015702;28;20105;-79
2022/08/05 08:00:55;;;;;;;9.65;8.38;;;23.60;93.40;;;;;;5019504;28;20061;-79
2022/08/05 08:03:21;;;;;;;14.60;9.80;;;23.60;93.40;;;;;;5015540;28;20041;-79
2022/08/05 08:05:51;;;;;;;9.95;8.90;;;23.60;93.40;;;;;;5014736;28;20030;-80
2022/08/05 08:08:17;;;;;;;9.85;6.82;;;23.60;93.80;;;;;;5014771;28;20053;-79
2022/08/05 08:10:44;;;;;;;9.27;7.75;;;23.60;93.60;;;;;;5006998;28;20026;-79
2022/08/05 08:13:10;;;;;;;8.90;8.00;;;23.60;93.50;;;;;;5003958;28;20029;-79
2022/08/05 08:15:35;;;;;;;8.93;8.02;;;23.60;93.60;;;;;;5014040;28;20033;-79
2022/08/05 08:18:01;;;;;;;11.07;9.13;;;23.60;93.50;;;;;;5007410;28;20113;-79
2022/08/05 08:20:27;;;;;;;11.65;9.15;;;23.60;93.60;;;;;;5003297;28;20030;-79
2022/08/05 08:22:55;;;;;;;10.27;8.95;;;23.60;93.60;;;;;;5012489;28;20021;-79
2022/08/05 08:25:22;;;;;;;9.93;8.93;;;23.60;93.60;;;;;;5011326;28;20364;-79
2022/08/05 08:27:47;;;;;;;11.27;9.15;;;23.50;93.70;;;;;;5013310;28;20026;-79
2022/08/05 08:30:14;;;;;;;12.18;10.77;;;23.60;93.70;;;;;;5009645;28;20688;-79
2022/08/05 08:32:40;;;;;;;12.20;10.05;;;23.60;93.70;;;;;;5020979;28;20037;-79
2022/08/05 08:35:06;;;;;;;10.20;8.88;;;23.60;93.70;;;;;;5016930;28;20018;-79
2022/08/05 08:37:32;;;;;;;14.20;12.00;;;23.50;93.70;;;;;;5024031;28;20022;-79
2022/08/05 08:39:58;;;;;;;14.13;12.25;;;23.60;93.70;;;;;;5019546;28;20160;-79
2022/08/05 08:42:25;;;;;;;11.85;10.10;;;23.50;93.70;;;;;;5021391;28;20049;-79
2022/08/05 08:44:53;;;;;;;15.45;10.45;;;23.50;93.80;;;;;;5012081;28;20026;-80
2022/08/05 08:47:25;;;;;;;13.13;10.10;;;23.50;93.80;;;;;;5013227;28;20490;-79
2022/08/05 08:49:53;;;;;;;14.80;13.20;;;23.50;93.80;;;;;;5012507;28;20384;-79
2022/08/05 08:52:24;;;;;;;15.43;11.38;;;23.50;93.80;;;;;;5012896;28;20050;-79
2022/08/05 08:54:52;;;;;;;13.95;11.57;;;23.50;93.90;;;;;;5009906;28;20036;-79
2022/08/05 08:57:18;;;;;;;14.57;10.23;;;23.50;93.90;;;;;;5008709;28;20351;-80
2022/08/05 08:59:44;;;;;;;12.68;10.95;;;23.50;93.90;;;;;;5011219;28;20048;-80
2022/08/05 09:02:11;;;;;;;13.50;11.93;;;23.50;93.90;;;;;;5007011;28;20026;-79
2022/08/05 09:04:37;;;;;;;14.25;12.75;;;23.50;93.90;;;;;;5019940;28;21632;-80
2022/08/05 09:07:05;;;;;;;14.90;12.95;;;23.50;93.90;;;;;;5012991;28;20080;-80
2022/08/05 09:09:32;;;;;;;14.38;12.82;;;23.40;93.90;;;;;;5009197;28;20121;-79
2022/08/05 09:11:58;;;;;;;13.85;12.35;;;23.40;93.90;;;;;;5010227;28;20458;-80
2022/08/05 09:14:25;;;;;;;15.68;12.93;;;23.40;94.00;;;;;;5015106;28;20064;-80
2022/08/05 09:16:51;;;;;;;15.05;12.98;;;23.40;94.00;;;;;;5019453;28;20556;-80
2022/08/05 09:19:16;;;;;;;17.58;14.63;;;23.40;94.00;;;;;;5012259;28;20030;-80
2022/08/05 09:21:42;;;;;;;13.57;12.07;;;23.40;94.00;;;;;;5018462;28;20030;-80
2022/08/05 09:24:11;;;;;;;13.70;12.07;;;23.40;94.00;;;;;;5019458;28;20064;-80
2022/08/05 09:26:37;;;;;;;13.88;12.27;;;23.40;94.00;;;;;;5007955;28;20313;-79
2022/08/05 09:29:07;;;;;;;26.33;17.48;;;23.40;94.00;;;;;;5019532;28;20093;-81
2022/08/05 09:31:34;;;;;;;23.83;19.63;;;22.50;97.10;;;;;;5018472;28;20111;-80
2022/08/05 09:34:05;;;;;;;19.77;17.67;;;21.90;99.70;;;;;;5010607;28;20030;-81
2022/08/05 09:36:49;;;;;;;21.30;18.60;;;21.30;99.90;;;;;;5011691;28;20088;-82
2022/08/05 09:39:16;;;;;;;19.98;16.50;;;21.00;99.90;;;;;;5018543;28;20036;-80
2022/08/05 09:42:00;;;;;;;17.77;16.00;;;20.70;99.90;;;;;;5012183;28;20784;-80
2022/08/05 09:44:38;;;;;;;15.30;13.45;;;20.70;99.90;;;;;;5013724;28;20030;-84
2022/08/05 09:47:09;;;;;;;15.27;13.68;;;20.80;99.90;;;;;;5017368;28;20030;-84
2022/08/05 09:49:39;;;;;;;13.20;10.80;;;21.10;99.90;;;;;;5024806;28;20041;-83
2022/08/05 09:52:29;;;;;;;11.88;10.68;;;21.40;99.90;;;;;;5018436;28;20065;-83
2022/08/05 09:54:59;;;;;;;14.00;10.90;;;21.60;99.90;;;;;;5020133;28;20033;-83
2022/08/05 09:57:31;;;;;;;10.80;9.77;;;21.80;99.90;;;;;;5018761;28;20077;-82
2022/08/05 10:00:04;;;;;;;11.35;10.18;;;21.90;99.90;;;;;;5012948;28;20038;-83
2022/08/05 10:02:34;;;;;;;;;;;21.90;99.90;;;;;;5017390;28;20121;-82
2022/08/05 10:05:17;;;;;;;12.40;10.35;;;21.90;99.90;;;;;;5018547;28;19914;-82
2022/08/05 10:07:51;;;;;;;11.65;10.43;;;21.90;99.90;;;;;;5016028;28;20034;-82
2022/08/05 10:10:38;;;;;;;11.07;9.55;;;21.90;99.90;;;;;;5020421;28;20038;-83
2022/08/05 10:13:05;;;;;;;13.10;9.65;;;22.00;99.90;;;;;;5017083;28;20116;-82
2022/08/05 10:15:37;;;;;;;12.20;10.63;;;22.00;99.90;;;;;;5040556;28;20038;-82
2022/08/05 10:18:12;;;;;;;11.52;9.57;;;21.80;99.90;;;;;;5022348;28;20033;-83
2022/08/05 10:20:47;;;;;;;12.63;9.82;;;21.80;99.90;;;;;;5012477;28;20037;-83
2022/08/05 10:23:16;;;;;;;13.55;11.57;;;21.80;99.90;;;;;;5024932;28;20038;-83
2022/08/05 10:25:42;;;;;;;10.73;9.68;;;21.90;99.90;;;;;;5025994;28;20030;-83
2022/08/05 10:28:08;;;;;;;11.43;9.52;;;21.90;99.90;;;;;;5004069;28;20464;-82
2022/08/05 10:30:35;;;;;;;12.80;10.32;;;21.70;99.90;;;;;;5012373;28;20025;-83
2022/08/05 10:33:01;;;;;;;12.43;9.82;;;21.70;99.90;;;;;;5020480;28;20026;-83
2022/08/05 10:35:27;;;;;;;8.15;6.95;;;21.70;99.90;;;;;;5014326;28;20368;-83
2022/08/05 10:37:54;;;;;;;7.50;6.80;;;21.80;99.90;;;;;;5012783;28;20033;-83
2022/08/05 10:40:34;;;;;;;9.65;6.80;;;21.70;99.90;;;;;;5013775;28;20044;-83
2022/08/05 10:43:21;;;;;;;7.85;7.05;;;21.50;99.90;;;;;;5021517;28;20033;-83
2022/08/05 10:46:01;;;;;;;6.28;5.68;;;21.50;99.90;;;;;;5027018;28;20028;-83
2022/08/05 10:48:38;;;;;;;5.90;5.40;;;21.40;99.90;;;;;;5037855;28;20082;-83
2022/08/05 10:51:05;;;;;;;6.30;4.93;;;21.50;99.90;;;;;;5009033;28;20030;-83
2022/08/05 10:53:43;;;;;;;4.38;3.97;;;21.40;99.90;;;;;;5012305;28;20068;-82
2022/08/05 10:56:14;;;;;;;4.72;4.18;;;21.40;99.90;;;;;;5019295;28;20022;-83
2022/08/05 10:59:05;;;;;;;4.95;3.92;;;21.30;99.90;;;;;;5023362;28;20038;-83
2022/08/05 11:01:38;;;;;;;6.82;4.68;;;21.20;99.90;;;;;;5020193;28;20085;-82
2022/08/05 11:04:16;;;;;;;7.00;4.85;;;21.20;99.90;;;;;;5018881;28;20037;-84
2022/08/05 11:06:59;;;;;;;4.82;4.22;;;21.10;99.90;;;;;;5009329;28;20034;-83
2022/08/05 11:09:35;;;;;;;5.50;4.63;;;21.10;99.90;;;;;;5024970;28;20033;-83
2022/08/05 11:12:02;;;;;;;5.43;4.57;;;21.10;99.90;;;;;;5014584;28;20030;-82
2022/08/05 11:14:37;;;;;;;6.63;4.30;;;21.10;99.90;;;;;;5020346;28;20540;-83
2022/08/05 11:17:32;;;;;;;5.95;3.63;;;21.10;99.90;;;;;;5025064;28;20398;-83
2022/08/05 11:19:58;;;;;;;5.82;3.78;;;21.10;99.90;;;;;;5003438;28;20037;-83
2022/08/05 11:22:47;;;;;;;5.75;2.97;;;21.20;99.90;;;;;;5008306;28;20509;-82
2022/08/05 11:25:37;;;;;;;4.65;3.25;;;21.10;99.90;;;;;;5010570;28;20512;-82
2022/08/05 11:28:10;;;;;;;4.07;2.92;;;21.10;99.90;;;;;;5022667;28;20029;-82
2022/08/05 11:30:55;;;;;;;5.03;2.95;;;21.10;99.90;;;;;;5010926;28;20057;-81
2022/08/05 11:33:25;;;;;;;8.73;3.00;;;21.00;99.90;;;;;;5026910;28;20113;-83
2022/08/05 11:35:56;;;;;;;5.80;2.80;;;21.10;99.90;;;;;;5013672;28;20061;-82
2022/08/05 11:38:50;;;;;;;6.53;3.13;;;21.10;99.90;;;;;;5013878;28;20034;-82
2022/08/05 11:41:21;;;;;;;5.00;3.05;;;21.10;99.90;;;;;;5012068;28;20124;-82
2022/08/05 11:43:54;;;;;;;11.30;3.97;;;21.10;99.20;;;;;;5015882;28;20093;-82
2022/08/05 11:46:31;;;;;;;7.00;3.30;;;21.10;99.50;;;;;;5018333;28;20033;-83
2022/08/05 11:48:58;;;;;;;5.85;3.42;;;20.90;99.50;;;;;;5014098;28;20021;-83
2022/08/05 11:51:26;;;;;;;9.35;3.97;;;21.00;99.90;;;;;;5013377;28;20165;-82
2022/08/05 11:53:52;;;;;;;5.55;3.15;;;21.10;99.80;;;;;;5015367;28;20033;-83
2022/08/05 11:56:18;;;;;;;6.35;3.33;;;21.20;99.10;;;;;;5017667;28;20089;-83
2022/08/05 11:58:45;;;;;;;5.68;3.72;;;21.30;98.60;;;;;;5015831;28;20068;-82
2022/08/05 12:01:13;;;;;;;7.55;3.90;;;21.30;98.50;;;;;;5019870;28;20037;-83
2022/08/05 12:03:51;;;;;;;6.65;3.85;;;21.30;98.30;;;;;;5015072;28;20097;-83
2022/08/05 12:06:19;;;;;;;7.75;3.30;;;21.40;98.60;;;;;;5027255;28;20026;-82
2022/08/05 12:08:50;;;;;;;8.48;4.15;;;21.40;97.90;;;;;;5026071;28;20121;-82
2022/08/05 12:11:19;;;;;;;10.98;3.95;;;21.40;98.00;;;;;;5028884;28;20050;-82
2022/08/05 12:14:03;;;;;;;6.82;2.97;;;21.50;98.10;;;;;;5008194;28;20049;-82
2022/08/05 12:16:34;;;;;;;10.00;4.35;;;21.40;99.10;;;;;;5039258;28;20102;-82
2022/08/05 12:19:00;;;;;;;7.88;3.35;;;21.50;98.80;;;;;;5036113;28;20037;-82
2022/08/05 12:21:32;;;;;;;10.13;3.80;;;21.60;98.40;;;;;;5025185;28;20044;-84
2022/08/05 12:24:19;;;;;;;4.53;2.83;;;21.70;98.30;;;;;;5015283;28;20026;-84
2022/08/05 12:26:51;;;;;;;8.90;3.83;;;21.80;98.20;;;;;;5011327;28;20033;-83
2022/08/05 12:29:22;;;;;;;5.25;3.28;;;21.80;97.20;;;;;;5017448;28;20477;-83
2022/08/05 12:31:49;;;;;;;6.18;3.33;;;21.90;97.10;;;;;;5020765;28;20022;-85
2022/08/05 12:34:17;;;;;;;8.55;3.80;;;21.90;96.70;;;;;;5026252;28;20476;-84
2022/08/05 12:36:44;;;;;;;5.15;2.90;;;21.90;96.60;;;;;;5012120;28;20038;-84
2022/08/05 12:39:10;;;;;;;5.13;2.80;;;22.00;96.70;;;;;;5026891;28;20486;-82
2022/08/05 12:41:38;;;;;;;6.68;2.70;;;22.00;96.10;;;;;;5046641;28;20036;-83
2022/08/05 12:44:10;;;;;;;9.77;3.95;;;22.00;95.70;;;;;;5028720;28;20025;-84
2022/08/05 12:46:38;;;;;;;4.43;2.47;;;22.10;96.00;;;;;;5019811;28;20026;-82
2022/08/05 12:49:07;;;;;;;7.93;3.58;;;22.10;96.10;;;;;;5013208;28;20026;-81
2022/08/05 12:51:42;;;;;;;4.70;2.65;;;22.10;95.20;;;;;;5012174;28;20047;-83
2022/08/05 12:54:08;;;;;;;5.65;3.03;;;22.00;93.70;;;;;;5016083;28;20036;-82